Time;durP1;ratioP1;P1;durP2;ratioP2;P2;SDS_P1;SDS_P2;PMS_P1;PMS_P2;Temp;Humidity;BMP_temperature;BMP_pressure;BME280_temperature;BME280_humidity;BME280_pressure;Samples;Min_cycle;Max_cycle;Signal;HPM_P1;HPM_P2
2023/03/14 00:00:11;;;;;;;19.90;2.90;;;;;;;17.24;47.27;98918.28;5067729;28;20098;-69
2023/03/14 00:02:37;;;;;;;18.17;3.47;;;;;;;16.74;49.06;98916.25;5068565;28;20024;-69
2023/03/14 00:05:06;;;;;;;21.57;3.50;;;;;;;16.07;50.61;98922.34;5058273;28;20481;-68
2023/03/14 00:07:38;;;;;;;16.50;3.10;;;;;;;16.52;49.45;98921.28;5064284;28;20025;-68
2023/03/14 00:10:07;;;;;;;17.75;3.95;;;;;;;16.66;50.02;98913.28;5067549;28;20020;-68
2023/03/14 00:12:32;;;;;;;18.43;2.57;;;;;;;16.52;51.11;98911.56;5064537;28;20357;-69
2023/03/14 00:14:59;;;;;;;12.43;2.77;;;;;;;16.85;50.44;98906.81;5060722;28;20037;-69
2023/03/14 00:17:25;;;;;;;15.10;2.93;;;;;;;16.11;51.50;98907.16;5062712;28;20128;-69
2023/03/14 00:19:53;;;;;;;10.97;2.50;;;;;;;16.07;52.21;98908.28;5053956;28;20089;-69
2023/03/14 00:22:19;;;;;;;5.40;1.80;;;;;;;16.43;51.17;98902.47;5068561;28;20113;-69
2023/03/14 00:24:44;;;;;;;13.63;1.90;;;;;;;16.11;51.59;98902.75;5066651;28;20109;-68
2023/03/14 00:27:10;;;;;;;13.73;1.93;;;;;;;16.81;50.65;98915.88;5066774;28;20501;-69
2023/03/14 00:29:35;;;;;;;12.10;1.97;;;;;;;16.37;53.07;98916.03;5066412;28;20027;-69
2023/03/14 00:32:00;;;;;;;9.20;1.70;;;;;;;16.89;51.78;98918.88;5067024;28;20085;-69
2023/03/14 00:34:29;;;;;;;8.00;2.23;;;;;;;16.48;53.17;98920.59;5065433;28;20028;-68
2023/03/14 00:36:55;;;;;;;7.43;2.07;;;;;;;15.50;56.48;98922.34;5047482;28;20029;-69
2023/03/14 00:39:20;;;;;;;11.57;2.57;;;;;;;16.20;55.77;98917.13;5068217;28;20105;-69
2023/03/14 00:41:46;;;;;;;13.73;2.63;;;;;;;16.29;56.00;98923.59;5065648;28;20036;-68
2023/03/14 00:44:11;;;;;;;14.03;2.30;;;;;;;16.90;54.62;98910.03;5068819;28;20060;-69
2023/03/14 00:46:37;;;;;;;18.10;2.80;;;;;;;16.52;56.91;98913.34;5065353;28;20048;-68
2023/03/14 00:49:02;;;;;;;12.43;2.20;;;;;;;16.25;56.65;98924.72;5067792;28;20033;-69
2023/03/14 00:51:27;;;;;;;17.27;3.00;;;;;;;16.37;55.48;98929.22;5068706;28;20036;-69
2023/03/14 00:53:53;;;;;;;12.00;2.40;;;;;;;16.02;57.85;98929.69;5065456;28;20098;-68
2023/03/14 00:56:18;;;;;;;17.27;3.13;;;;;;;16.29;57.54;98936.75;5067537;28;20028;-69
2023/03/14 00:58:44;;;;;;;19.70;3.23;;;;;;;16.77;54.86;98947.75;5067419;28;20043;-69
2023/03/14 01:01:14;;;;;;;11.67;2.03;;;;;;;15.67;58.42;98930.03;5067808;28;20027;-68
2023/03/14 01:03:39;;;;;;;14.47;2.27;;;;;;;16.59;55.98;98927.84;5065673;28;20029;-69
2023/03/14 01:06:17;;;;;;;15.40;2.50;;;;;;;16.81;54.64;98929.06;5067093;28;20327;-69
2023/03/14 01:08:43;;;;;;;11.50;2.53;;;;;;;16.06;58.15;98930.31;5066196;28;20090;-69
2023/03/14 01:11:12;;;;;;;15.63;2.30;;;;;;;16.99;53.54;98914.66;5058097;28;20033;-70
2023/03/14 01:13:38;;;;;;;12.73;1.90;;;;;;;16.54;55.07;98914.09;5068230;28;20036;-69
2023/03/14 01:16:06;;;;;;;12.83;2.60;;;;;;;16.56;55.24;98917.50;5066687;28;20035;-69
2023/03/14 01:18:32;;;;;;;9.03;1.67;;;;;;;15.61;60.35;98919.88;5065887;28;20029;-68
2023/03/14 01:20:58;;;;;;;16.97;2.17;;;;;;;16.43;57.79;98917.41;5064258;28;20503;-68
2023/03/14 01:23:23;;;;;;;12.60;2.30;;;;;;;16.18;58.67;98918.16;5067251;28;20021;-68
2023/03/14 01:25:49;;;;;;;13.40;2.37;;;;;;;16.31;59.24;98924.34;5065294;28;20032;-68
2023/03/14 01:28:15;;;;;;;14.90;2.00;;;;;;;15.52;60.52;98920.44;5068171;28;20051;-68
2023/03/14 01:30:41;;;;;;;19.00;2.63;;;;;;;16.19;57.82;98925.13;5054625;28;20029;-68
2023/03/14 01:33:06;;;;;;;19.23;2.13;;;;;;;16.38;57.43;98923.00;5048144;28;20047;-69
2023/03/14 01:35:32;;;;;;;13.13;2.00;;;;;;;16.69;56.33;98918.38;5054404;28;20040;-69
2023/03/14 01:37:57;;;;;;;10.40;1.60;;;;;;;16.08;57.39;98916.09;5066642;28;20101;-69
2023/03/14 01:40:22;;;;;;;24.10;2.53;;;;;;;15.50;59.49;98922.34;5066458;28;20472;-69
2023/03/14 01:42:56;;;;;;;17.67;3.13;;;;;;;16.90;55.64;98904.75;5066869;28;20032;-69
2023/03/14 01:45:58;;;;;;;14.87;2.00;;;;;;;16.22;57.77;98899.41;5070228;28;20499;-69
2023/03/14 01:48:31;;;;;;;11.57;1.48;;;;;;;16.30;57.66;98901.56;5070114;28;20056;-68
2023/03/14 01:50:57;;;;;;;12.07;2.13;;;;;;;16.07;56.84;98895.97;5069405;28;20111;-69
2023/03/14 01:53:23;;;;;;;9.67;1.87;;;;;;;16.75;55.67;98907.41;5070441;28;20032;-69
2023/03/14 01:55:51;;;;;;;14.47;2.60;;;;;;;16.15;56.51;98903.38;5069998;28;20039;-69
2023/03/14 01:58:17;;;;;;;10.70;1.70;;;;;;;16.14;57.81;98900.84;5069812;28;20115;-69
2023/03/14 02:00:43;;;;;;;12.63;1.60;;;;;;;16.82;54.91;98894.66;5069581;28;20555;-68
2023/03/14 02:03:16;;;;;;;10.13;2.30;;;;;;;16.54;55.23;98898.28;5070528;28;20028;-69
2023/03/14 02:05:42;;;;;;;9.23;2.43;;;;;;;15.64;57.73;98896.00;5065964;28;20024;-69
2023/03/14 02:08:13;;;;;;;16.47;1.90;;;;;;;16.13;57.59;98896.50;5071056;28;20039;-69
2023/03/14 02:10:43;;;;;;;13.40;2.13;;;;;;;17.00;54.68;98873.31;5071210;28;20060;-69
2023/03/14 02:13:11;;;;;;;13.13;1.93;;;;;;;16.47;55.74;98873.25;5070575;28;20043;-69
2023/03/14 02:15:38;;;;;;;8.67;1.90;;;;;;;15.89;57.63;98876.06;5069083;28;20035;-68
2023/03/14 02:18:05;;;;;;;12.57;1.90;;;;;;;15.90;57.99;98880.38;5069094;28;20036;-69
2023/03/14 02:20:41;;;;;;;10.87;1.60;;;;;;;16.41;56.49;98877.97;5065388;28;20044;-69
2023/03/14 02:23:06;;;;;;;15.10;2.87;;;;;;;17.09;54.48;98877.94;5050009;28;20401;-69
2023/03/14 02:25:50;;;;;;;7.33;1.57;;;;;;;15.31;60.77;98876.06;5064715;28;20024;-68
2023/03/14 02:28:16;;;;;;;7.27;1.57;;;;;;;15.64;59.72;98867.03;5064877;28;20482;-68
2023/03/14 02:30:42;;;;;;;11.77;1.77;;;;;;;15.29;61.50;98867.41;5069455;28;20036;-69
2023/03/14 02:33:11;;;;;;;14.03;2.40;;;;;;;15.55;61.77;98871.09;5069560;28;20033;-68
2023/03/14 02:35:41;;;;;;;9.50;1.87;;;;;;;16.28;57.05;98867.41;5064994;28;20090;-68
2023/03/14 02:38:34;;;;;;;8.47;1.50;;;;;;;16.19;58.77;98861.88;5068510;28;20036;-69
2023/03/14 02:40:59;;;;;;;10.27;1.77;;;;;;;16.27;60.68;98865.69;5065223;28;20500;-69
2023/03/14 02:43:25;;;;;;;7.30;1.50;;;;;;;16.62;57.54;98864.31;5068249;28;20098;-69
2023/03/14 02:45:51;;;;;;;7.87;1.80;;;;;;;15.41;60.66;98866.66;5068043;28;20025;-68
2023/03/14 02:48:21;;;;;;;12.77;1.87;;;;;;;15.92;60.36;98857.41;5069378;28;20044;-69
2023/03/14 02:50:50;;;;;;;7.87;1.90;;;;;;;15.97;60.96;98851.88;5068311;28;20044;-70
2023/03/14 02:53:19;;;;;;;11.10;1.87;;;;;;;15.69;62.56;98859.69;5069643;28;20021;-69
2023/03/14 02:55:46;;;;;;;17.20;3.07;;;;;;;15.74;62.19;98846.22;5066037;28;20115;-69
2023/03/14 02:58:12;;;;;;;7.23;2.00;;;;;;;15.27;64.43;98853.50;5068803;28;20103;-69
2023/03/14 03:00:37;;;;;;;11.60;2.13;;;;;;;15.85;61.88;98853.47;5070321;28;20028;-69
2023/03/14 03:03:05;;;;;;;12.77;2.80;;;;;;;15.82;61.75;98856.31;5068105;28;20496;-69
2023/03/14 03:05:30;;;;;;;14.27;2.50;;;;;;;15.27;63.27;98861.38;5067892;28;20035;-68
2023/03/14 03:07:56;;;;;;;16.50;1.83;;;;;;;16.47;57.53;98849.53;5068006;28;20028;-69
2023/03/14 03:10:22;;;;;;;9.40;1.80;;;;;;;15.67;60.13;98842.28;5068624;28;20369;-69
2023/03/14 03:12:48;;;;;;;11.20;2.23;;;;;;;14.75;64.74;98847.81;5067912;28;20035;-69
2023/03/14 03:15:13;;;;;;;13.73;2.70;;;;;;;15.97;61.53;98836.91;5069461;28;20488;-68
2023/03/14 03:17:38;;;;;;;10.13;2.03;;;;;;;15.17;63.91;98847.09;5066891;28;20020;-69
2023/03/14 03:20:05;;;;;;;13.07;2.07;;;;;;;15.54;62.22;98844.84;5068344;28;20650;-68
2023/03/14 03:22:30;;;;;;;10.47;1.83;;;;;;;16.06;59.56;98841.59;5070114;28;20020;-69
2023/03/14 03:24:56;;;;;;;11.60;2.20;;;;;;;16.23;58.54;98842.28;5066527;28;20033;-68
2023/03/14 03:27:21;;;;;;;14.67;2.20;;;;;;;16.58;57.52;98832.06;5066808;28;20024;-69
2023/03/14 03:29:47;;;;;;;13.17;2.00;;;;;;;16.58;56.79;98836.47;5068873;28;20078;-68
2023/03/14 03:32:12;;;;;;;9.23;2.10;;;;;;;16.03;59.07;98831.25;5068210;28;20106;-69
2023/03/14 03:34:38;;;;;;;9.80;1.90;;;;;;;15.70;59.52;98824.53;5067894;28;20507;-69
2023/03/14 03:37:03;;;;;;;15.47;2.43;;;;;;;15.59;61.08;98826.97;5067223;28;20028;-69
2023/03/14 03:39:28;;;;;;;11.63;2.57;;;;;;;16.42;57.60;98837.50;5069549;28;20024;-69
2023/03/14 03:41:54;;;;;;;13.63;1.80;;;;;;;16.30;57.58;98837.47;5054156;28;20557;-69
2023/03/14 03:44:19;;;;;;;9.67;2.03;;;;;;;16.22;58.47;98828.22;5055286;28;20441;-68
2023/03/14 03:46:45;;;;;;;18.27;2.10;;;;;;;16.01;58.55;98819.94;5067037;28;20056;-68
2023/03/14 03:49:11;;;;;;;12.47;2.10;;;;;;;16.35;58.02;98830.94;5069075;28;20023;-68
2023/03/14 03:51:36;;;;;;;9.30;2.07;;;;;;;15.71;61.61;98820.09;5067516;28;20048;-70
2023/03/14 03:54:01;;;;;;;12.23;1.90;;;;;;;15.67;61.53;98835.22;5066477;28;20097;-70
2023/03/14 03:56:27;;;;;;;11.70;2.23;;;;;;;16.15;59.32;98831.38;5068317;28;20064;-70
2023/03/14 03:58:52;;;;;;;16.77;3.63;;;;;;;16.15;58.27;98834.84;5068260;28;20029;-70
2023/03/14 04:01:17;;;;;;;9.17;2.47;;;;;;;16.06;58.84;98824.91;5069881;28;20509;-70
2023/03/14 04:03:43;;;;;;;9.97;2.00;;;;;;;15.68;61.19;98821.13;5066470;28;20028;-70
2023/03/14 04:06:11;;;;;;;7.70;1.40;;;;;;;15.91;59.04;98834.66;5066561;28;20028;-70
2023/03/14 04:08:37;;;;;;;12.90;2.17;;;;;;;15.73;60.03;98834.84;5068377;28;20024;-68
2023/03/14 04:11:03;;;;;;;12.07;2.50;;;;;;;15.37;61.38;98836.22;5067683;28;20021;-68
2023/03/14 04:13:28;;;;;;;16.20;2.23;;;;;;;16.94;54.69;98841.09;5067420;28;20030;-69
2023/03/14 04:15:54;;;;;;;12.67;1.90;;;;;;;15.55;61.70;98825.47;5067406;28;20028;-70
2023/03/14 04:18:21;;;;;;;12.90;2.67;;;;;;;16.10;57.86;98832.53;5067665;28;20116;-70
2023/03/14 04:20:57;;;;;;;9.03;1.80;;;;;;;15.54;62.21;98836.97;5080771;28;20609;-70
2023/03/14 04:23:24;;;;;;;11.73;1.73;;;;;;;16.02;61.80;98826.91;5068019;28;20491;-70
2023/03/14 04:25:50;;;;;;;7.80;1.90;;;;;;;15.83;63.32;98829.88;5068445;28;20441;-69
2023/03/14 04:28:15;;;;;;;10.03;2.10;;;;;;;15.34;65.78;98827.66;5067330;28;20029;-68
2023/03/14 04:30:41;;;;;;;10.17;1.70;;;;;;;16.11;61.85;98830.72;5066481;28;20027;-68
2023/03/14 04:33:07;;;;;;;13.57;2.17;;;;;;;16.02;63.88;98829.56;5069328;28;20032;-68
2023/03/14 04:35:33;;;;;;;13.07;2.20;;;;;;;15.66;65.37;98837.97;5069324;28;20021;-68
2023/03/14 04:37:59;;;;;;;12.07;2.00;;;;;;;16.75;61.28;98828.28;5066093;28;20028;-70
2023/03/14 04:40:24;;;;;;;6.17;1.50;;;;;;;15.77;65.83;98820.53;5069257;28;20058;-70
2023/03/14 04:42:50;;;;;;;8.67;1.93;;;;;;;15.93;66.14;98820.44;5066227;28;20024;-70
2023/03/14 04:45:15;;;;;;;16.80;2.30;;;;;;;15.70;67.23;98819.25;5068289;28;20029;-70
2023/03/14 04:47:40;;;;;;;7.77;1.70;;;;;;;15.95;66.88;98815.09;5066821;28;20048;-70
2023/03/14 04:50:06;;;;;;;10.63;2.00;;;;;;;15.31;68.96;98817.31;5084178;28;20032;-69
2023/03/14 04:52:32;;;;;;;10.63;2.17;;;;;;;15.38;70.82;98819.44;5066593;28;20032;-68
2023/03/14 04:54:57;;;;;;;16.60;2.80;;;;;;;16.20;68.63;98816.97;5066616;28;20143;-70
2023/03/14 04:57:22;;;;;;;7.13;1.70;;;;;;;14.61;75.26;98828.47;5065783;28;20040;-69
2023/03/14 04:59:48;;;;;;;5.47;1.53;;;;;;;14.86;75.72;98827.88;5066884;28;20029;-69
2023/03/14 05:02:13;;;;;;;12.67;2.17;;;;;;;16.04;67.94;98822.38;5066677;28;20115;-69
2023/03/14 05:04:38;;;;;;;10.97;2.10;;;;;;;16.28;69.20;98824.38;5066377;28;20024;-69
2023/03/14 05:07:04;;;;;;;13.43;2.20;;;;;;;16.40;67.68;98823.56;5067704;28;20032;-69
2023/03/14 05:09:30;;;;;;;7.17;2.10;;;;;;;16.49;66.72;98821.28;5064777;28;20039;-69
2023/03/14 05:11:55;;;;;;;7.60;2.00;;;;;;;16.53;68.04;98806.94;5057791;28;20024;-70
2023/03/14 05:14:20;;;;;;;11.10;2.20;;;;;;;15.09;73.86;98813.34;5065797;28;20108;-70
2023/03/14 05:16:46;;;;;;;9.00;2.17;;;;;;;16.15;69.61;98812.94;5066911;28;20514;-69
2023/03/14 05:19:11;;;;;;;18.27;3.13;;;;;;;15.85;71.22;98811.34;5069540;28;20031;-70
2023/03/14 05:21:37;;;;;;;9.53;2.43;;;;;;;15.81;73.44;98804.56;5071237;28;20059;-69
2023/03/14 05:24:02;;;;;;;6.43;1.97;;;;;;;14.80;77.61;98804.59;5070130;28;20404;-69
2023/03/14 05:26:28;;;;;;;7.27;1.93;;;;;;;15.01;79.16;98800.66;5071297;28;20035;-69
2023/03/14 05:28:53;;;;;;;8.67;2.47;;;;;;;14.90;77.62;98808.34;5070485;28;20111;-69
2023/03/14 05:31:19;;;;;;;13.43;2.90;;;;;;;15.16;78.40;98800.69;5070589;28;20032;-70
2023/03/14 05:33:44;;;;;;;9.40;2.27;;;;;;;14.70;80.90;98813.03;5069273;28;20024;-70
2023/03/14 05:36:10;;;;;;;6.27;2.70;;;;;;;13.99;83.54;98808.34;5071522;28;20369;-69
2023/03/14 05:38:35;;;;;;;10.77;2.93;;;;;;;14.85;83.49;98811.28;5070412;28;20033;-69
2023/03/14 05:41:00;;;;;;;6.47;3.07;;;;;;;14.87;86.08;98819.06;5071665;28;20371;-69
2023/03/14 05:43:26;;;;;;;8.50;3.00;;;;;;;15.23;77.87;98852.00;5070878;28;20492;-70
2023/03/14 05:45:51;;;;;;;6.93;2.43;;;;;;;14.24;86.22;98878.72;5069957;28;20028;-69
2023/03/14 05:48:16;;;;;;;9.13;2.30;;;;;;;14.60;82.62;98874.94;5070063;28;20404;-69
2023/03/14 05:50:42;;;;;;;5.67;1.83;;;;;;;14.12;80.99;98889.91;5071720;28;20480;-69
2023/03/14 05:53:08;;;;;;;5.43;1.60;;;;;;;13.46;82.12;98908.28;5068866;28;20029;-69
2023/03/14 05:55:33;;;;;;;6.53;1.10;;;;;;;13.29;78.64;98917.03;5069159;28;20488;-69
2023/03/14 05:57:58;;;;;;;4.53;0.87;;;;;;;12.80;82.25;98911.66;5069140;28;20075;-70
2023/03/14 06:00:24;;;;;;;6.00;1.20;;;;;;;13.85;74.91;98915.00;5070639;28;20111;-70
2023/03/14 06:02:49;;;;;;;2.37;0.70;;;;;;;13.24;78.08;98930.41;5067019;28;20417;-70
2023/03/14 06:05:14;;;;;;;5.17;1.13;;;;;;;12.79;83.19;98936.16;5071045;28;20055;-70
2023/03/14 06:07:40;;;;;;;6.03;1.00;;;;;;;13.33;83.27;98946.59;5068364;28;20035;-69
2023/03/14 06:10:06;;;;;;;4.07;0.93;;;;;;;13.78;80.05;98946.91;5071618;28;20025;-69
2023/03/14 06:12:31;;;;;;;2.67;0.70;;;;;;;13.61;75.85;98958.31;5068206;28;20140;-69
2023/03/14 06:14:56;;;;;;;5.53;1.10;;;;;;;13.47;78.71;98964.28;5069677;28;20062;-69
2023/03/14 06:17:22;;;;;;;10.80;1.27;;;;;;;14.27;73.69;98957.38;5070972;28;20034;-69
2023/03/14 06:19:47;;;;;;;5.93;1.20;;;;;;;14.30;77.44;98961.63;5070167;28;20029;-69
2023/03/14 06:22:13;;;;;;;7.07;1.30;;;;;;;14.45;74.84;98960.75;5070111;28;20431;-70
2023/03/14 06:24:38;;;;;;;7.77;1.43;;;;;;;14.24;72.00;98973.31;5068389;28;20029;-69
2023/03/14 06:27:04;;;;;;;6.30;1.30;;;;;;;13.29;76.54;98979.16;5067900;28;20029;-70
2023/03/14 06:29:32;;;;;;;3.03;0.70;;;;;;;13.15;77.70;98998.22;5068890;28;20016;-70
2023/03/14 06:31:58;;;;;;;1.40;0.67;;;;;;;13.59;77.61;99003.00;5070647;28;20070;-70
2023/03/14 06:34:23;;;;;;;6.27;1.10;;;;;;;13.86;75.65;99007.75;5069468;28;20055;-70
2023/03/14 06:36:48;;;;;;;6.83;1.20;;;;;;;14.00;76.34;99000.00;5067215;28;20476;-70
2023/03/14 06:39:14;;;;;;;7.83;1.33;;;;;;;13.63;78.21;99009.81;5069202;28;20090;-70
2023/03/14 06:41:39;;;;;;;8.90;2.50;;;;;;;13.54;79.01;99026.84;5068204;28;20020;-69
2023/03/14 06:44:05;;;;;;;5.23;0.80;;;;;;;13.19;79.10;99032.09;5069678;28;20421;-70
2023/03/14 06:46:30;;;;;;;4.67;0.67;;;;;;;12.83;78.07;99045.19;5068018;28;20036;-70
2023/03/14 06:48:55;;;;;;;6.10;0.90;;;;;;;13.48;75.88;99057.84;5068874;28;20059;-70
2023/03/14 06:51:21;;;;;;;5.57;0.70;;;;;;;12.69;78.61;99058.97;5068635;28;20024;-70
2023/03/14 06:53:46;;;;;;;2.30;0.50;;;;;;;12.61;78.26;99068.97;5068604;28;20028;-69
2023/03/14 06:56:11;;;;;;;3.67;0.67;;;;;;;13.39;73.70;99070.50;5070329;28;20543;-69
2023/03/14 06:58:37;;;;;;;5.30;1.60;;;;;;;13.42;74.90;99079.13;5067687;28;20064;-69
2023/03/14 07:01:03;;;;;;;5.73;0.80;;;;;;;13.04;75.48;99096.63;5070655;28;20028;-69
2023/03/14 07:03:28;;;;;;;4.77;1.00;;;;;;;12.91;76.34;99090.25;5068951;28;20024;-69
2023/03/14 07:05:54;;;;;;;6.97;0.87;;;;;;;13.24;74.39;99105.31;5069740;28;20051;-69
2023/03/14 07:08:19;;;;;;;9.80;1.07;;;;;;;13.35;74.91;99108.31;5067362;28;20028;-69
2023/03/14 07:10:44;;;;;;;13.27;1.40;;;;;;;13.35;73.53;99129.31;5070350;28;20031;-69
2023/03/14 07:13:10;;;;;;;5.80;0.90;;;;;;;13.28;73.11;99119.97;5064966;28;20024;-69
2023/03/14 07:15:35;;;;;;;10.63;1.37;;;;;;;12.73;77.63;99139.16;5069064;28;20025;-69
2023/03/14 07:18:01;;;;;;;5.43;1.00;;;;;;;13.51;74.69;99131.16;5068999;28;20024;-69
2023/03/14 07:20:26;;;;;;;7.87;1.20;;;;;;;13.54;73.41;99150.22;5065085;28;20035;-69
2023/03/14 07:22:52;;;;;;;7.37;1.13;;;;;;;13.98;70.72;99155.97;5059677;28;20020;-70
2023/03/14 07:25:18;;;;;;;12.20;1.97;;;;;;;14.51;69.16;99169.91;5066195;28;20111;-69
2023/03/14 07:27:44;;;;;;;14.23;2.00;;;;;;;14.05;71.54;99179.25;5063664;28;20020;-69
2023/03/14 07:30:10;;;;;;;7.30;1.90;;;;;;;14.03;69.00;99177.63;5061425;28;20016;-69
2023/03/14 07:32:36;;;;;;;17.43;2.93;;;;;;;13.35;72.49;99187.03;5066377;28;20120;-69
2023/03/14 07:35:01;;;;;;;11.70;1.63;;;;;;;13.58;69.90;99195.56;5069999;28;20108;-69
2023/03/14 07:37:27;;;;;;;8.80;1.80;;;;;;;13.31;74.38;99214.31;5067778;28;20063;-69
2023/03/14 07:39:52;;;;;;;12.13;1.57;;;;;;;13.43;71.82;99217.31;5064817;28;20062;-69
2023/03/14 07:42:18;;;;;;;13.23;1.67;;;;;;;13.12;73.69;99234.44;5066717;28;20028;-69
2023/03/14 07:44:43;;;;;;;10.57;1.23;;;;;;;12.86;75.26;99244.34;5066900;28;20055;-69
2023/03/14 07:47:08;;;;;;;10.27;1.30;;;;;;;13.40;79.52;99248.00;5069585;28;20060;-69
2023/03/14 07:49:34;;;;;;;9.67;1.27;;;;;;;13.11;77.77;99257.19;5066487;28;20028;-69
2023/03/14 07:51:59;;;;;;;10.70;1.70;;;;;;;13.34;76.46;99264.03;5067732;28;20119;-70
2023/03/14 07:54:24;;;;;;;7.73;1.50;;;;;;;13.49;75.83;99274.75;5060534;28;20052;-69
2023/03/14 07:56:51;;;;;;;11.43;1.90;;;;;;;12.90;77.65;99306.22;5065700;28;20101;-69
2023/03/14 07:59:17;;;;;;;10.67;2.23;;;;;;;12.21;80.94;99320.47;5063753;28;20033;-70
2023/03/14 08:01:43;;;;;;;11.23;2.17;;;;;;;12.04;78.53;99324.63;5064812;28;20021;-70
2023/03/14 08:04:08;;;;;;;12.80;1.30;;;;;;;12.18;80.05;99331.06;5052214;28;20472;-69
2023/03/14 08:06:35;;;;;;;2.67;0.90;;;;;;;12.12;78.74;99347.06;5067363;28;20036;-70
2023/03/14 08:09:00;;;;;;;7.10;1.63;;;;;;;11.83;78.31;99362.13;5066003;28;20035;-70
2023/03/14 08:11:26;;;;;;;17.10;2.07;;;;;;;12.22;79.48;99369.34;5065385;28;20033;-69
2023/03/14 08:13:52;;;;;;;12.73;1.80;;;;;;;12.12;79.09;99378.50;5066684;28;20579;-69
2023/03/14 08:16:18;;;;;;;16.10;3.03;;;;;;;12.19;77.73;99387.81;5067194;28;20484;-69
2023/03/14 08:18:44;;;;;;;10.40;1.67;;;;;;;11.95;78.97;99403.56;5054099;28;20057;-69
2023/03/14 08:21:10;;;;;;;9.67;1.80;;;;;;;12.31;73.30;99410.88;5055783;28;20107;-70
2023/03/14 08:23:35;;;;;;;7.10;1.50;;;;;;;12.59;74.19;99429.91;5064495;28;20496;-69
2023/03/14 08:26:01;;;;;;;10.83;1.40;;;;;;;12.91;69.86;99431.16;5063785;28;20118;-69
2023/03/14 08:28:30;;;;;;;7.23;2.10;;;;;;;12.76;70.12;99450.16;5047444;28;20025;-69
2023/03/14 08:30:56;;;;;;;10.10;1.17;;;;;;;12.58;71.85;99465.72;5065462;28;20016;-69
2023/03/14 08:33:21;;;;;;;5.60;0.90;;;;;;;12.13;74.70;99474.47;5062791;28;20032;-70
2023/03/14 08:35:47;;;;;;;8.93;0.70;;;;;;;11.48;72.18;99489.88;5064333;28;20516;-70
2023/03/14 08:38:12;;;;;;;1.80;0.63;;;;;;;12.11;71.10;99497.25;5064063;28;20275;-69
2023/03/14 08:40:38;;;;;;;4.30;0.67;;;;;;;11.56;70.99;99521.88;5065544;28;20107;-69
2023/03/14 08:43:03;;;;;;;2.33;0.40;;;;;;;10.39;74.60;99541.34;5069903;28;20056;-69
2023/03/14 08:45:29;;;;;;;8.90;0.80;;;;;;;11.45;71.48;99544.94;5066246;28;20058;-69
2023/03/14 08:47:54;;;;;;;5.20;0.60;;;;;;;11.92;65.59;99539.78;5059027;28;20147;-69
2023/03/14 08:50:19;;;;;;;6.63;0.80;;;;;;;11.45;67.60;99558.03;5060558;28;20036;-69
2023/03/14 08:52:45;;;;;;;9.73;1.00;;;;;;;11.28;65.80;99569.91;5064912;28;20166;-69
2023/03/14 08:55:11;;;;;;;5.60;0.73;;;;;;;11.81;63.17;99566.34;5056497;28;20395;-69
2023/03/14 08:57:36;;;;;;;5.90;0.80;;;;;;;11.91;64.61;99574.75;5060623;28;20032;-69
2023/03/14 09:00:13;;;;;;;2.60;0.83;;;;;;;12.57;60.39;99584.63;5058467;28;20086;-70
2023/03/14 09:02:39;;;;;;;4.90;0.87;;;;;;;11.63;62.40;99603.66;5054108;28;20161;-69
2023/03/14 09:05:05;;;;;;;10.40;1.00;;;;;;;12.37;57.34;99599.28;5063052;28;20460;-69
2023/03/14 09:07:31;;;;;;;3.80;0.93;;;;;;;12.20;58.46;99609.56;5065221;28;20036;-70
2023/03/14 09:09:56;;;;;;;7.97;1.10;;;;;;;12.87;56.57;99615.78;5049955;28;20056;-69
2023/03/14 09:12:21;;;;;;;12.70;1.40;;;;;;;13.04;56.77;99629.09;5066288;28;20024;-69
2023/03/14 09:14:47;;;;;;;7.70;1.07;;;;;;;12.26;58.94;99643.38;5063046;28;20135;-68
2023/03/14 09:17:12;;;;;;;8.97;1.10;;;;;;;13.92;54.23;99645.69;5064713;28;20041;-69
2023/03/14 09:19:37;;;;;;;14.57;1.90;;;;;;;13.18;54.81;99652.16;5066505;28;20032;-69
2023/03/14 09:22:03;;;;;;;12.53;1.43;;;;;;;13.84;54.53;99663.56;5065849;28;20476;-69
2023/03/14 09:24:28;;;;;;;8.90;1.20;;;;;;;13.61;54.76;99672.38;5058236;28;20110;-69
2023/03/14 09:26:56;;;;;;;13.43;2.53;;;;;;;14.11;52.87;99681.69;5067464;28;20476;-69
2023/03/14 09:29:21;;;;;;;9.40;1.37;;;;;;;12.95;55.18;99697.66;5061590;28;20029;-69
2023/03/14 09:31:47;;;;;;;14.43;2.13;;;;;;;12.77;56.35;99706.22;5065910;28;20515;-69
2023/03/14 09:34:12;;;;;;;14.27;2.20;;;;;;;12.77;56.15;99711.47;5061244;28;20040;-69
2023/03/14 09:36:39;;;;;;;18.67;2.20;;;;;;;14.16;52.61;99727.00;5063896;28;20123;-69
2023/03/14 09:39:05;;;;;;;12.57;2.20;;;;;;;13.70;53.46;99738.50;5066239;28;20538;-69
2023/03/14 09:41:39;;;;;;;15.57;1.70;;;;;;;13.16;52.96;99742.34;5067739;28;20078;-69
2023/03/14 09:44:16;;;;;;;23.87;2.40;;;;;;;13.20;56.85;99762.31;5065087;28;20491;-69
2023/03/14 09:46:45;;;;;;;14.47;2.30;;;;;;;11.86;60.97;99780.91;5066268;28;20048;-69
2023/03/14 09:49:34;;;;;;;12.13;2.43;;;;;;;11.40;66.97;99790.19;5065777;28;20472;-69
2023/03/14 09:52:04;;;;;;;17.53;2.03;;;;;;;11.78;68.89;99793.38;5065434;28;20480;-69
2023/03/14 09:54:44;;;;;;;14.60;1.63;;;;;;;11.43;68.18;99808.41;5067473;28;20035;-69
2023/03/14 09:57:16;;;;;;;24.10;2.93;;;;;;;12.76;66.58;99814.63;5063674;28;20104;-68
2023/03/14 09:59:44;;;;;;;16.20;2.53;;;;;;;11.98;66.83;99822.44;5065964;28;20038;-69
2023/03/14 10:02:22;;;;;;;13.70;2.10;;;;;;;11.52;65.91;99839.53;5067580;28;20059;-68
2023/03/14 10:04:49;;;;;;;11.47;1.83;;;;;;;11.33;68.52;99844.44;5052543;28;20028;-68
2023/03/14 10:07:28;;;;;;;9.17;1.63;;;;;;;11.58;64.37;99849.84;5060293;28;20108;-68
2023/03/14 10:09:54;;;;;;;17.90;1.80;;;;;;;12.35;59.53;99852.69;5069049;28;20177;-69
2023/03/14 10:12:29;;;;;;;16.23;2.30;;;;;;;12.32;59.48;99868.53;5069309;28;20042;-72
2023/03/14 10:14:55;;;;;;;21.73;2.30;;;;;;;12.72;56.37;99867.19;5068219;28;20117;-68
2023/03/14 10:17:21;;;;;;;27.07;2.97;;;;;;;13.72;53.61;99875.00;5067525;28;20069;-68
2023/03/14 10:19:57;;;;;;;18.40;2.80;;;;;;;13.60;52.41;99889.47;5064976;28;20035;-69
2023/03/14 10:22:28;;;;;;;20.63;2.60;;;;;;;13.33;52.63;99893.94;5067641;28;20209;-69
2023/03/14 10:25:01;;;;;;;21.43;2.60;;;;;;;13.44;53.91;99906.69;5067062;28;20021;-68
2023/03/14 10:27:30;;;;;;;22.73;2.87;;;;;;;13.26;52.27;99911.66;5069667;28;20538;-68
2023/03/14 10:29:58;;;;;;;19.43;2.70;;;;;;;14.15;51.66;99906.63;5063908;28;20035;-68
2023/03/14 10:32:31;;;;;;;26.20;3.17;;;;;;;13.57;52.22;99936.81;5067792;28;20169;-68
2023/03/14 10:35:17;;;;;;;29.33;3.37;;;;;;;11.59;52.52;99966.69;5059338;28;20285;-66
2023/03/14 10:38:02;;;;;;;18.40;2.83;;;;;;;12.15;52.12;99963.34;5074267;28;20081;-70
2023/03/14 10:40:33;;;;;;;21.30;2.80;;;;;;;11.20;55.07;99985.19;5064191;28;20613;-68
2023/03/14 10:43:00;;;;;;;16.60;3.13;;;;;;;11.54;51.38;99990.38;5064891;28;20040;-68
2023/03/14 10:45:31;;;;;;;23.00;2.17;;;;;;;12.38;49.18;99998.50;5063899;28;20029;-68
2023/03/14 10:48:27;;;;;;;19.63;3.17;;;;;;;13.23;47.34;100006.25;5062935;28;20055;-68
2023/03/14 10:51:02;;;;;;;21.00;3.07;;;;;;;11.97;48.41;100019.75;5048960;28;20674;-68
2023/03/14 10:53:33;;;;;;;20.73;3.00;;;;;;;12.19;48.79;100019.16;5064124;28;20032;-68
2023/03/14 10:56:02;;;;;;;25.27;3.40;;;;;;;12.92;46.73;100030.88;5068656;28;20031;-68
2023/03/14 10:58:33;;;;;;;22.20;2.80;;;;;;;13.59;44.73;100026.91;5059302;28;20485;-68
2023/03/14 11:00:58;;;;;;;17.67;3.30;;;;;;;13.84;44.78;100042.63;5054528;28;20028;-68
2023/03/14 11:03:26;;;;;;;20.53;2.40;;;;;;;12.29;45.09;100069.50;5069146;28;20058;-68
2023/03/14 11:06:02;;;;;;;19.47;2.57;;;;;;;13.82;44.02;100064.59;5067399;28;20020;-68
2023/03/14 11:08:55;;;;;;;28.23;3.67;;;;;;;14.74;41.48;100073.47;5080469;28;20493;-69
2023/03/14 11:11:28;;;;;;;24.37;4.60;;;;;;;13.80;42.66;100083.06;5069478;28;20154;-68
2023/03/14 11:14:06;;;;;;;16.10;2.10;;;;;;;14.48;41.67;100096.38;5069345;28;20024;-68
2023/03/14 11:16:55;;;;;;;22.70;2.53;;;;;;;14.42;41.49;100093.97;5057033;28;20433;-69
2023/03/14 11:19:37;;;;;;;14.17;2.83;;;;;;;13.12;42.95;100115.94;5056692;28;20036;-68
2023/03/14 11:22:28;;;;;;;20.00;2.33;;;;;;;13.85;40.49;100119.69;5066853;28;20024;-69
2023/03/14 11:25:13;;;;;;;15.77;2.50;;;;;;;14.29;39.66;100138.25;5057470;28;20062;-70
2023/03/14 11:27:41;;;;;;;17.83;2.27;;;;;;;14.13;39.95;100140.56;5063010;28;20302;-69